Terminal Aerodrome Forecast
Issued by NWS Lake Charles, LA

Home | Current Version | Previous Version | Text Only | Print | Product List | Glossary On
Versions: 1 2 3 4 5 6 7 8 9 10 11 12 13 14 15 16
000
FTUS44 KLCH 232326
TAFAEX
TAF
KAEX 232326Z 2400/2424 VRB04KT P6SM FEW040 BKN150
     FM240200 VRB03KT P6SM SCT250
     FM241500 24005KT P6SM BKN050
     FM241800 23005KT P6SM VCTS SCT050CB BKN120
      TEMPO 2418/2422 P6SM -TSRA BKN050CB=

USA.gov is the U.S. government's official web portal to all federal, state and local government web resources and services.